Hartford/Springfield (BDL/KBDL)

Information

Location
Hartford, CT
Local Time
01:45 / 1:45 am
GMT Time
05:45 / 5:45 am
Gates
A9
No FAA reported delays
METAR KBDL 190451Z 00000KT 10SM CLR 07/07 A3026 RMK AO2 SLP245 T00720067 402280039
TAF KBDL 182320Z 1900/2006 23004KT P6SM SKC FM190900 00000KT 6SM BR FEW008 FM191300 21007KT P6SM SKC FM191800 21011G20KT P6SM SKC FM200000 20008KT P6SM SKC